Time;durP1;ratioP1;P1;durP2;ratioP2;P2;SDS_P1;SDS_P2;PMS_P1;PMS_P2;Temp;Humidity;BMP_temperature;BMP_pressure;BME280_temperature;BME280_humidity;BME280_pressure;Samples;Min_cycle;Max_cycle;Signal;HPM_P1;HPM_P2
2023/06/12 00:00:51;;;;;;;10.82;5.72;;;;;;;17.86;65.17;96163.94;5030922;28;20048;-72
2023/06/12 00:03:18;;;;;;;14.18;6.65;;;;;;;17.82;64.91;96152.84;5030257;28;20045;-72
2023/06/12 00:05:45;;;;;;;13.20;6.25;;;;;;;17.85;65.10;96156.81;5030372;28;20045;-72
2023/06/12 00:08:11;;;;;;;12.07;6.30;;;;;;;17.83;64.78;96159.94;5030537;28;20049;-72
2023/06/12 00:10:38;;;;;;;9.57;5.60;;;;;;;17.84;65.26;96155.22;5030988;28;20103;-72
2023/06/12 00:13:06;;;;;;;11.15;5.88;;;;;;;17.80;65.13;96152.44;5030526;28;20045;-72
2023/06/12 00:15:34;;;;;;;11.40;6.22;;;;;;;17.77;65.03;96144.91;5030442;28;20064;-72
2023/06/12 00:18:00;;;;;;;11.90;6.05;;;;;;;17.76;65.28;96148.81;5030329;28;20045;-71
2023/06/12 00:20:27;;;;;;;10.38;5.78;;;;;;;17.71;64.74;96146.34;5030276;28;20061;-71
2023/06/12 00:22:53;;;;;;;11.60;5.82;;;;;;;17.69;65.08;96143.16;5030757;28;20049;-72
2023/06/12 00:25:20;;;;;;;8.85;5.30;;;;;;;17.65;65.85;96145.06;5030335;28;20045;-72
2023/06/12 00:27:47;;;;;;;10.38;5.80;;;;;;;17.60;66.01;96142.63;5030166;28;20049;-72
2023/06/12 00:30:15;;;;;;;12.00;6.15;;;;;;;17.56;65.73;96134.31;5021981;28;20050;-71
2023/06/12 00:32:42;;;;;;;12.93;6.65;;;;;;;17.55;65.95;96138.22;5022874;28;20049;-72
2023/06/12 00:35:09;;;;;;;12.50;6.40;;;;;;;17.53;65.97;96136.97;5029810;28;20390;-72
2023/06/12 00:37:35;;;;;;;12.40;6.60;;;;;;;17.53;66.11;96135.03;5029881;28;20044;-72
2023/06/12 00:40:02;;;;;;;11.43;6.00;;;;;;;17.53;65.49;96132.28;5029918;28;20045;-73
2023/06/12 00:42:31;;;;;;;12.30;6.70;;;;;;;17.50;65.06;96134.97;5030370;28;20063;-72
2023/06/12 00:44:58;;;;;;;13.40;6.68;;;;;;;17.47;65.73;96131.78;5030424;28;20080;-72
2023/06/12 00:47:26;;;;;;;24.45;7.90;;;;;;;17.40;65.99;96137.19;5029578;28;20043;-72
2023/06/12 00:49:53;;;;;;;17.42;7.22;;;;;;;17.21;66.03;96132.53;5029423;28;20516;-72
2023/06/12 00:52:24;;;;;;;13.38;6.80;;;;;;;17.34;66.09;96133.16;5028961;28;20050;-72
2023/06/12 00:54:51;;;;;;;11.90;6.50;;;;;;;17.40;66.26;96131.69;5023164;28;20045;-72
2023/06/12 00:57:18;;;;;;;21.13;8.05;;;;;;;17.43;66.32;96130.13;5029406;28;20060;-72
2023/06/12 00:59:45;;;;;;;14.85;6.32;;;;;;;17.42;65.77;96132.09;5029902;28;20052;-72
2023/06/12 01:02:13;;;;;;;12.45;6.43;;;;;;;17.39;66.30;96124.59;5029346;28;20119;-72
2023/06/12 01:04:42;;;;;;;14.07;6.30;;;;;;;17.32;66.16;96129.16;5030036;28;20511;-72
2023/06/12 01:07:20;;;;;;;10.30;6.00;;;;;;;17.27;66.16;96130.25;5029545;28;20061;-72
2023/06/12 01:09:54;;;;;;;15.27;6.35;;;;;;;17.21;66.43;96132.53;5030033;28;20164;-72
2023/06/12 01:12:21;;;;;;;11.93;6.20;;;;;;;17.17;66.33;96128.09;5029379;28;20045;-72
2023/06/12 01:14:48;;;;;;;10.52;6.45;;;;;;;17.16;67.09;96126.53;5029564;28;20056;-72
2023/06/12 01:17:16;;;;;;;18.02;7.32;;;;;;;17.16;67.04;96123.78;5028263;28;20045;-72
2023/06/12 01:19:44;;;;;;;13.20;6.28;;;;;;;17.14;67.00;96126.09;5029724;28;20048;-71
2023/06/12 01:22:16;;;;;;;10.70;6.88;;;;;;;16.83;68.23;96114.16;5028810;28;20143;-72
2023/06/12 01:25:21;;;;;;;14.60;7.47;;;;;;;16.84;67.96;96121.22;5029568;28;20589;-72
2023/06/12 01:27:58;;;;;;;14.57;6.70;;;;;;;16.90;68.34;96125.28;5029370;28;20041;-72
2023/06/12 01:30:42;;;;;;;12.50;6.90;;;;;;;16.67;68.32;96116.16;5029057;28;20069;-72
2023/06/12 01:33:14;;;;;;;13.43;7.22;;;;;;;16.63;68.66;96116.09;5029199;28;20084;-72
2023/06/12 01:35:43;;;;;;;13.32;6.70;;;;;;;16.79;68.31;96124.28;5029580;28;20045;-72
2023/06/12 01:38:17;;;;;;;11.35;6.40;;;;;;;16.89;68.06;96129.19;5028233;28;20073;-72
2023/06/12 01:40:46;;;;;;;13.23;7.15;;;;;;;16.95;68.25;96132.44;5013486;28;20038;-71
2023/06/12 01:43:12;;;;;;;12.68;7.20;;;;;;;16.75;68.30;96128.91;5013311;28;20042;-72
2023/06/12 01:45:41;;;;;;;14.52;8.02;;;;;;;16.74;68.66;96124.56;5008071;28;20441;-72
2023/06/12 01:48:07;;;;;;;13.38;7.25;;;;;;;16.76;68.63;96125.03;5008588;28;20052;-73
2023/06/12 01:50:35;;;;;;;15.48;7.90;;;;;;;16.70;68.59;96123.66;5025624;28;20491;-72
2023/06/12 01:53:02;;;;;;;13.93;7.35;;;;;;;16.60;69.30;96110.50;5028871;28;20049;-74
2023/06/12 01:55:29;;;;;;;12.90;6.70;;;;;;;16.72;68.67;96113.16;5027309;28;20052;-72
2023/06/12 01:57:55;;;;;;;15.88;7.38;;;;;;;16.63;69.03;96115.28;5029094;28;20046;-72
2023/06/12 02:00:22;;;;;;;13.40;7.22;;;;;;;16.63;69.14;96118.84;5028350;28;20056;-72
2023/06/12 02:02:53;;;;;;;16.77;7.28;;;;;;;16.70;69.00;96115.41;5029333;28;20045;-72
2023/06/12 02:05:20;;;;;;;16.38;7.85;;;;;;;16.71;69.13;96114.31;5028972;28;20046;-72
2023/06/12 02:07:47;;;;;;;12.82;7.20;;;;;;;16.74;69.41;96105.31;5029380;28;20045;-72
2023/06/12 02:10:15;;;;;;;14.60;7.88;;;;;;;16.65;69.44;96105.53;5028930;28;20056;-72
2023/06/12 02:12:43;;;;;;;12.63;6.90;;;;;;;16.63;69.46;96104.28;5028433;28;20073;-72
2023/06/12 02:15:11;;;;;;;16.10;8.20;;;;;;;16.47;69.90;96111.81;5028814;28;20069;-71
2023/06/12 02:17:37;;;;;;;17.13;8.63;;;;;;;16.30;71.03;96113.06;5028340;28;20045;-72
2023/06/12 02:20:05;;;;;;;14.20;8.13;;;;;;;16.26;71.33;96110.22;5028131;28;20052;-72
2023/06/12 02:22:31;;;;;;;18.25;8.32;;;;;;;16.20;71.60;96119.13;5029170;28;20049;-72
2023/06/12 02:24:59;;;;;;;14.70;7.85;;;;;;;16.18;71.66;96119.47;5029018;28;20412;-72
2023/06/12 02:27:26;;;;;;;23.17;9.68;;;;;;;16.09;72.51;96118.91;5028516;28;20067;-72
2023/06/12 02:29:52;;;;;;;18.85;8.60;;;;;;;15.86;73.57;96116.00;5032738;28;20046;-71
2023/06/12 02:32:19;;;;;;;15.05;7.30;;;;;;;16.17;72.65;96117.88;5031796;28;20492;-72
2023/06/12 02:34:45;;;;;;;14.18;7.82;;;;;;;16.25;72.09;96119.63;5032922;28;20048;-71
2023/06/12 02:37:12;;;;;;;17.00;7.72;;;;;;;16.34;72.08;96116.66;5032200;28;20056;-72
2023/06/12 02:39:39;;;;;;;13.13;7.82;;;;;;;16.31;72.03;96120.94;5032700;28;20042;-71
2023/06/12 02:42:08;;;;;;;15.70;8.10;;;;;;;16.37;71.85;96119.47;5032376;28;20052;-71
2023/06/12 02:44:35;;;;;;;17.13;8.50;;;;;;;16.38;71.75;96120.28;5032336;28;20089;-72
2023/06/12 02:47:01;;;;;;;11.00;7.07;;;;;;;16.40;71.86;96113.28;5031559;28;20049;-72
2023/06/12 02:49:30;;;;;;;15.18;7.70;;;;;;;16.42;71.75;96113.69;5032347;28;20512;-71
2023/06/12 02:51:57;;;;;;;15.40;7.60;;;;;;;16.35;71.47;96116.31;5032428;28;20053;-72
2023/06/12 02:54:26;;;;;;;14.13;7.25;;;;;;;16.35;71.99;96124.56;5031991;28;20049;-72
2023/06/12 02:56:52;;;;;;;16.58;7.75;;;;;;;16.40;72.47;96118.78;5031847;28;20053;-71
2023/06/12 02:59:22;;;;;;;10.77;6.97;;;;;;;16.45;72.41;96109.44;5023765;28;20049;-72
2023/06/12 03:01:49;;;;;;;16.77;8.32;;;;;;;16.44;72.26;96119.66;5024445;28;20083;-72
2023/06/12 03:04:18;;;;;;;18.05;7.97;;;;;;;16.42;72.50;96121.94;5032036;28;20061;-72
2023/06/12 03:06:45;;;;;;;17.65;7.90;;;;;;;16.41;72.52;96117.63;5032197;28;20088;-72
2023/06/12 03:09:15;;;;;;;16.75;8.25;;;;;;;16.33;72.67;96124.09;5031048;28;20501;-72
2023/06/12 03:11:42;;;;;;;18.77;8.45;;;;;;;16.35;72.46;96121.81;5032120;28;20076;-72
2023/06/12 03:14:09;;;;;;;11.80;6.78;;;;;;;16.34;72.50;96120.22;5031154;28;20084;-72
2023/06/12 03:16:37;;;;;;;15.65;7.93;;;;;;;16.34;72.86;96130.38;5032040;28;20132;-72
2023/06/12 03:19:04;;;;;;;14.70;8.20;;;;;;;16.30;73.17;96132.28;5031089;28;20049;-72
2023/06/12 03:21:31;;;;;;;17.15;8.45;;;;;;;16.29;73.66;96134.25;5031335;28;20068;-72
2023/06/12 03:23:57;;;;;;;15.05;7.72;;;;;;;16.28;73.83;96132.63;5031994;28;20049;-71
2023/06/12 03:26:24;;;;;;;15.52;7.72;;;;;;;16.23;73.64;96141.16;5031543;28;20542;-72
2023/06/12 03:28:50;;;;;;;18.42;8.80;;;;;;;16.23;73.79;96130.16;5022371;28;20042;-72
2023/06/12 03:31:17;;;;;;;14.85;8.35;;;;;;;16.17;74.40;96131.59;5028096;28;20073;-72
2023/06/12 03:33:45;;;;;;;16.85;8.50;;;;;;;16.16;74.42;96136.31;5022940;28;20042;-71
2023/06/12 03:36:12;;;;;;;16.50;9.43;;;;;;;16.14;74.67;96135.09;5030107;28;20052;-72
2023/06/12 03:38:38;;;;;;;17.27;9.60;;;;;;;16.09;74.97;96138.13;5031562;28;20047;-72
2023/06/12 03:41:06;;;;;;;19.52;10.23;;;;;;;16.00;75.35;96143.00;5030185;28;20041;-71
2023/06/12 03:43:32;;;;;;;20.85;9.65;;;;;;;16.10;75.54;96139.69;5031003;28;20436;-72
2023/06/12 03:45:58;;;;;;;16.27;8.95;;;;;;;16.16;75.58;96146.50;5026598;28;20050;-72
2023/06/12 03:48:25;;;;;;;16.52;9.15;;;;;;;16.16;75.45;96143.75;5019169;28;20049;-74
2023/06/12 03:50:53;;;;;;;15.55;8.43;;;;;;;16.16;75.40;96147.31;5011653;28;20053;-72
2023/06/12 03:53:19;;;;;;;18.75;9.80;;;;;;;16.08;75.72;96156.56;5028065;28;20487;-72
2023/06/12 03:55:46;;;;;;;16.90;9.35;;;;;;;16.01;76.27;96150.09;5031527;28;20053;-72
2023/06/12 03:58:16;;;;;;;17.48;9.45;;;;;;;16.05;75.90;96151.75;5030645;28;20053;-72
2023/06/12 04:00:43;;;;;;;18.95;9.45;;;;;;;16.04;76.18;96160.38;5031069;28;20052;-72
2023/06/12 04:03:10;;;;;;;19.48;9.93;;;;;;;16.08;76.57;96161.25;5030686;28;20054;-72
2023/06/12 04:05:37;;;;;;;21.70;10.35;;;;;;;16.03;76.66;96165.06;5022720;28;20050;-72
2023/06/12 04:08:05;;;;;;;18.13;9.88;;;;;;;15.96;77.61;96164.09;5030792;28;20041;-72
2023/06/12 04:10:33;;;;;;;19.75;10.13;;;;;;;15.91;77.31;96163.22;5038441;28;20063;-72
2023/06/12 04:12:59;;;;;;;20.30;10.70;;;;;;;15.90;77.36;96161.63;5023898;28;20045;-72
2023/06/12 04:15:26;;;;;;;24.45;10.38;;;;;;;15.93;77.57;96168.38;5026473;28;20045;-72
2023/06/12 04:17:53;;;;;;;21.27;10.38;;;;;;;15.99;77.55;96160.66;5030419;28;20523;-71
2023/06/12 04:20:20;;;;;;;20.98;10.43;;;;;;;15.91;77.86;96162.41;5030507;28;20047;-72
2023/06/12 04:22:49;;;;;;;19.63;9.70;;;;;;;16.01;77.22;96158.31;5028480;28;20050;-72
2023/06/12 04:25:17;;;;;;;13.75;8.85;;;;;;;16.12;77.57;96157.41;5025384;28;20107;-72
2023/06/12 04:27:44;;;;;;;21.40;11.18;;;;;;;16.08;76.52;96164.00;5021954;28;20072;-72
2023/06/12 04:30:15;;;;;;;18.08;9.00;;;;;;;16.19;76.41;96162.28;5024195;28;20056;-72
2023/06/12 04:32:41;;;;;;;19.90;10.48;;;;;;;16.21;76.49;96159.97;5010930;28;20074;-72
2023/06/12 04:35:09;;;;;;;17.70;8.60;;;;;;;16.29;76.57;96156.22;5010351;28;20057;-72
2023/06/12 04:37:37;;;;;;;16.08;9.05;;;;;;;16.32;76.10;96163.72;5010973;28;20068;-72
2023/06/12 04:40:04;;;;;;;19.35;9.13;;;;;;;16.30;75.73;96157.03;5020658;28;20073;-72
2023/06/12 04:42:32;;;;;;;20.33;9.68;;;;;;;16.22;75.78;96155.25;5019518;28;20046;-72
2023/06/12 04:44:59;;;;;;;17.23;8.95;;;;;;;16.03;75.35;96158.78;5022679;28;20052;-72
2023/06/12 04:47:25;;;;;;;25.90;10.85;;;;;;;15.86;75.39;96157.19;5021875;28;20049;-72
2023/06/12 04:49:57;;;;;;;19.58;9.32;;;;;;;16.00;75.42;96156.75;5019438;28;20140;-71
2023/06/12 04:52:24;;;;;;;16.77;9.43;;;;;;;15.96;75.58;96153.91;5025759;28;20413;-72
2023/06/12 04:54:52;;;;;;;14.50;8.48;;;;;;;16.08;75.21;96144.78;5023028;28;20088;-72
2023/06/12 04:57:19;;;;;;;21.08;9.73;;;;;;;16.21;74.85;96151.72;5029117;28;20060;-72
2023/06/12 04:59:48;;;;;;;15.90;8.93;;;;;;;15.96;73.61;96142.13;5037837;28;20041;-72
2023/06/12 05:02:15;;;;;;;18.17;9.32;;;;;;;15.99;74.48;96141.41;5032583;28;20564;-72
2023/06/12 05:04:43;;;;;;;13.98;7.85;;;;;;;16.12;74.42;96140.13;5031849;28;20056;-76
2023/06/12 05:07:16;;;;;;;15.73;9.02;;;;;;;16.04;73.31;96139.19;5026548;28;20045;-72
2023/06/12 05:09:43;;;;;;;16.67;8.57;;;;;;;16.07;73.16;96143.16;5029559;28;20053;-73
2023/06/12 05:12:11;;;;;;;19.02;8.70;;;;;;;15.98;72.31;96143.38;5034694;28;20049;-72
2023/06/12 05:14:38;;;;;;;17.83;8.45;;;;;;;15.98;72.60;96143.38;5035389;28;20416;-72
2023/06/12 05:17:06;;;;;;;14.85;8.45;;;;;;;15.98;72.44;96139.84;5028514;28;20052;-72
2023/06/12 05:19:33;;;;;;;16.73;8.65;;;;;;;15.98;72.40;96145.31;5032067;28;20133;-72
2023/06/12 05:22:00;;;;;;;16.10;8.05;;;;;;;16.18;72.79;96152.44;5034857;28;20045;-73
2023/06/12 05:24:26;;;;;;;17.08;8.30;;;;;;;16.04;71.26;96154.88;5031296;28;20041;-72
2023/06/12 05:26:53;;;;;;;14.30;7.55;;;;;;;16.20;71.51;96158.38;5029920;28;20060;-72
2023/06/12 05:29:19;;;;;;;16.80;8.23;;;;;;;16.34;71.02;96164.19;5029077;28;20054;-72
2023/06/12 05:31:46;;;;;;;18.17;8.13;;;;;;;16.42;70.32;96168.66;5034759;28;20136;-72
2023/06/12 05:34:15;;;;;;;21.02;8.50;;;;;;;16.47;70.00;96167.59;5029872;28;20057;-72
2023/06/12 05:36:41;;;;;;;20.48;8.65;;;;;;;16.44;68.76;96169.13;5030168;28;20045;-73
2023/06/12 05:39:08;;;;;;;13.80;8.00;;;;;;;16.55;69.29;96168.53;5028564;28;20049;-73
2023/06/12 05:41:34;;;;;;;19.27;7.78;;;;;;;16.59;68.89;96166.66;5031231;28;20041;-72
2023/06/12 05:44:02;;;;;;;16.55;7.85;;;;;;;16.70;68.81;96165.72;5029283;28;20124;-72
2023/06/12 05:46:28;;;;;;;23.35;9.02;;;;;;;16.78;68.02;96161.19;5028256;28;20041;-72
2023/06/12 05:48:57;;;;;;;15.73;7.63;;;;;;;16.74;67.64;96165.81;5029252;28;20672;-73
2023/06/12 05:51:24;;;;;;;16.33;7.90;;;;;;;16.82;67.71;96166.78;5029208;28;20038;-72
2023/06/12 05:53:51;;;;;;;18.65;8.57;;;;;;;16.78;67.44;96172.19;5029457;28;20042;-72
2023/06/12 05:56:18;;;;;;;15.25;7.80;;;;;;;16.84;66.93;96165.22;5029045;28;20045;-72
2023/06/12 05:58:44;;;;;;;18.08;8.30;;;;;;;16.94;67.07;96170.16;5018966;28;20049;-72
2023/06/12 06:01:11;;;;;;;14.45;7.43;;;;;;;17.05;66.74;96170.34;5025051;28;20048;-73
2023/06/12 06:03:42;;;;;;;17.55;7.95;;;;;;;17.12;66.77;96167.75;5031665;28;20041;-72
2023/06/12 06:06:08;;;;;;;14.55;7.28;;;;;;;17.18;65.81;96173.75;5035429;28;20045;-73
2023/06/12 06:08:36;;;;;;;19.15;7.85;;;;;;;17.29;64.90;96174.72;5034706;28;20041;-73
2023/06/12 06:11:03;;;;;;;16.80;7.25;;;;;;;17.39;65.79;96178.84;5034814;28;20053;-73
2023/06/12 06:13:29;;;;;;;17.00;7.70;;;;;;;17.47;65.00;96178.59;5035401;28;20045;-73
2023/06/12 06:15:56;;;;;;;15.88;7.55;;;;;;;17.52;64.03;96183.00;5034753;28;20041;-72
2023/06/12 06:18:22;;;;;;;15.68;7.13;;;;;;;17.55;64.13;96181.47;5035142;28;20054;-72
2023/06/12 06:20:49;;;;;;;15.63;7.47;;;;;;;17.59;64.42;96182.31;5036415;28;20049;-72
2023/06/12 06:23:15;;;;;;;14.65;7.38;;;;;;;17.62;64.16;96184.34;5035359;28;20053;-73
2023/06/12 06:25:44;;;;;;;15.38;7.18;;;;;;;17.78;63.63;96190.53;5037468;28;20042;-72
2023/06/12 06:28:10;;;;;;;16.52;7.43;;;;;;;17.76;63.78;96198.38;5037688;28;20103;-73
2023/06/12 06:30:37;;;;;;;11.68;6.88;;;;;;;17.87;63.49;96193.06;5036899;28;20448;-73
2023/06/12 06:33:03;;;;;;;12.65;7.10;;;;;;;17.88;63.57;96184.41;5036231;28;20042;-72
2023/06/12 06:35:30;;;;;;;14.20;8.00;;;;;;;17.89;63.29;96191.50;5036569;28;20049;-72
2023/06/12 06:37:56;;;;;;;12.50;7.43;;;;;;;17.95;63.09;96195.53;5034090;28;20433;-72
2023/06/12 06:40:23;;;;;;;12.88;7.45;;;;;;;18.07;63.61;96196.53;5032487;28;20045;-72
2023/06/12 06:42:52;;;;;;;13.05;7.55;;;;;;;18.17;62.61;96195.88;5033006;28;20044;-72
2023/06/12 06:45:20;;;;;;;12.48;6.95;;;;;;;18.13;62.42;96189.53;5032181;28;20090;-72
2023/06/12 06:47:46;;;;;;;12.00;6.47;;;;;;;18.26;62.36;96196.41;5032578;28;20049;-71
2023/06/12 06:50:13;;;;;;;14.40;6.93;;;;;;;18.33;62.17;96187.47;5032289;28;20042;-72
2023/06/12 06:52:40;;;;;;;16.52;7.38;;;;;;;18.46;62.37;96192.34;5032222;28;20056;-73
2023/06/12 06:55:07;;;;;;;12.18;7.43;;;;;;;18.52;61.75;96190.88;5031981;28;20409;-73
2023/06/12 06:57:36;;;;;;;16.52;7.60;;;;;;;18.59;61.36;96197.66;5032221;28;20053;-72
2023/06/12 07:00:06;;;;;;;13.25;7.57;;;;;;;18.65;61.30;96198.91;5024044;28;20063;-72
2023/06/12 07:02:32;;;;;;;14.82;6.72;;;;;;;18.62;60.36;96194.94;5032440;28;20072;-72
2023/06/12 07:04:59;;;;;;;15.85;7.07;;;;;;;18.72;60.25;96188.00;5032235;28;20054;-72
2023/06/12 07:07:25;;;;;;;19.73;8.68;;;;;;;18.84;60.23;96195.22;5031659;28;20049;-73
2023/06/12 07:09:52;;;;;;;12.00;6.72;;;;;;;19.06;60.86;96196.31;5032288;28;20060;-72
2023/06/12 07:12:18;;;;;;;12.32;6.43;;;;;;;19.06;58.76;96197.09;5031664;28;20046;-72
2023/06/12 07:14:45;;;;;;;11.40;7.03;;;;;;;19.01;57.99;96195.47;5031947;28;20060;-72
2023/06/12 07:17:13;;;;;;;11.93;6.97;;;;;;;19.24;58.92;96192.56;5031646;28;20405;-75
2023/06/12 07:19:39;;;;;;;11.32;6.63;;;;;;;19.21;58.58;96195.28;5032388;28;20059;-72
2023/06/12 07:22:05;;;;;;;12.52;6.90;;;;;;;19.13;58.11;96199.13;5031539;28;20037;-72
2023/06/12 07:24:32;;;;;;;11.80;6.70;;;;;;;19.19;58.08;96194.88;5031417;28;20045;-72
2023/06/12 07:26:59;;;;;;;14.00;6.60;;;;;;;19.38;58.92;96191.91;5020135;28;20144;-72
2023/06/12 07:29:25;;;;;;;13.30;7.03;;;;;;;19.49;57.98;96194.78;5021306;28;20057;-72
2023/06/12 07:31:51;;;;;;;10.98;6.88;;;;;;;19.56;57.49;96192.09;5022860;28;20045;-72
2023/06/12 07:34:19;;;;;;;10.63;6.30;;;;;;;19.64;57.17;96191.03;5017591;28;20045;-73
2023/06/12 07:36:46;;;;;;;11.85;6.10;;;;;;;19.72;57.01;96200.16;5012110;28;20045;-72
2023/06/12 07:39:12;;;;;;;16.77;7.10;;;;;;;19.83;55.80;96195.50;5011485;28;20045;-72
2023/06/12 07:41:42;;;;;;;11.60;7.18;;;;;;;19.96;56.78;96205.09;5028186;28;20048;-72
2023/06/12 07:44:10;;;;;;;11.55;6.70;;;;;;;20.04;56.62;96203.97;5031098;28;20045;-72
2023/06/12 07:46:36;;;;;;;9.60;6.20;;;;;;;20.08;55.50;96202.03;5031429;28;20042;-73
2023/06/12 07:49:03;;;;;;;12.32;6.18;;;;;;;20.23;55.20;96197.41;5030902;28;20048;-73
2023/06/12 07:54:53;;;;;;;12.65;6.78;;;;;;;20.59;54.88;96204.00;5031097;28;20103;-72
2023/06/12 07:57:20;;;;;;;18.00;7.85;;;;;;;20.40;53.92;96207.00;5030617;28;20045;-73
2023/06/12 07:59:46;;;;;;;14.57;6.93;;;;;;;20.52;53.50;96198.44;5022938;28;20048;-72
2023/06/12 08:02:13;;;;;;;14.13;7.03;;;;;;;20.51;53.94;96199.59;5030906;28;20056;-73
2023/06/12 08:04:40;;;;;;;14.90;6.35;;;;;;;20.52;54.03;96203.97;5031116;28;20052;-72
2023/06/12 08:07:09;;;;;;;13.43;6.60;;;;;;;20.49;52.76;96196.41;5030800;28;20045;-73
2023/06/12 08:09:35;;;;;;;10.77;6.20;;;;;;;20.85;53.91;96193.84;5030892;28;20390;-73
2023/06/12 08:12:04;;;;;;;10.52;5.93;;;;;;;21.17;52.99;96193.19;5030370;28;20048;-73
2023/06/12 08:14:30;;;;;;;10.80;6.43;;;;;;;21.22;51.70;96195.56;5031108;28;20056;-72
2023/06/12 08:16:58;;;;;;;10.48;5.72;;;;;;;21.23;52.49;96188.84;5031024;28;20053;-72
2023/06/12 08:19:24;;;;;;;11.52;6.50;;;;;;;21.54;52.38;96196.47;5030305;28;20405;-73
2023/06/12 08:21:51;;;;;;;11.70;6.40;;;;;;;21.50;50.50;96190.13;5030758;28;20049;-73
2023/06/12 08:24:18;;;;;;;16.17;6.40;;;;;;;21.69;49.32;96191.72;5030438;28;20070;-73
2023/06/12 08:26:45;;;;;;;10.50;5.53;;;;;;;21.86;49.66;96188.16;5030209;28;20433;-73
2023/06/12 08:29:13;;;;;;;14.68;6.28;;;;;;;21.98;50.46;96188.97;5029923;28;20045;-73
2023/06/12 08:31:40;;;;;;;17.60;6.18;;;;;;;22.32;49.54;96184.63;5030740;28;20064;-72
2023/06/12 08:34:07;;;;;;;13.23;5.97;;;;;;;22.31;47.19;96193.34;5030299;28;20046;-74
2023/06/12 08:36:35;;;;;;;11.10;5.88;;;;;;;22.55;47.50;96188.94;5030882;28;20041;-73
2023/06/12 08:39:02;;;;;;;11.15;5.93;;;;;;;22.62;46.93;96192.50;5030405;28;20574;-73
2023/06/12 08:41:31;;;;;;;12.77;5.43;;;;;;;22.84;47.92;96192.44;5030372;28;20038;-73
2023/06/12 08:44:00;;;;;;;11.43;5.60;;;;;;;22.98;46.32;96192.41;5030121;28;20050;-72
2023/06/12 08:46:30;;;;;;;14.73;5.70;;;;;;;22.76;44.43;96196.41;5029983;28;20137;-73
2023/06/12 08:48:59;;;;;;;13.65;5.78;;;;;;;22.40;45.17;96190.97;5030443;28;20080;-73
2023/06/12 08:51:26;;;;;;;14.73;5.80;;;;;;;22.46;44.65;96199.66;5029889;28;20061;-73
2023/06/12 08:53:53;;;;;;;15.88;5.85;;;;;;;22.60;45.35;96194.88;5030354;28;20161;-73
2023/06/12 08:56:21;;;;;;;13.00;5.40;;;;;;;22.80;45.85;96200.75;5029770;28;20413;-73
2023/06/12 08:58:48;;;;;;;13.55;5.93;;;;;;;22.52;44.04;96192.53;5029604;28;20049;-73
2023/06/12 09:01:15;;;;;;;11.48;5.22;;;;;;;22.56;44.18;96194.09;5029728;28;20042;-73
2023/06/12 09:03:49;;;;;;;12.93;5.32;;;;;;;22.29;43.93;96202.06;5030139;28;20050;-73
2023/06/12 09:06:18;;;;;;;12.65;5.80;;;;;;;22.37;44.61;96211.16;5022417;28;20452;-73
2023/06/12 09:08:45;;;;;;;12.07;5.63;;;;;;;22.59;45.65;96204.38;5029762;28;20532;-72
2023/06/12 09:11:12;;;;;;;12.90;5.40;;;;;;;22.72;43.91;96199.22;5029501;28;20045;-73
2023/06/12 09:13:42;;;;;;;15.23;5.28;;;;;;;22.57;41.35;96187.34;5029897;28;20091;-73
2023/06/12 09:16:11;;;;;;;15.60;4.97;;;;;;;22.80;41.67;96200.75;5029431;28;20050;-73
2023/06/12 09:18:49;;;;;;;16.52;4.95;;;;;;;22.91;41.97;96203.53;5029745;28;20432;-73
2023/06/12 09:21:16;;;;;;;12.38;5.22;;;;;;;22.93;40.53;96198.38;5022197;28;20068;-73
2023/06/12 09:23:43;;;;;;;12.23;4.72;;;;;;;22.92;39.64;96200.38;5029955;28;20492;-73
2023/06/12 09:26:13;;;;;;;15.13;5.18;;;;;;;23.00;39.22;96203.09;5029309;28;20045;-73
2023/06/12 09:28:43;;;;;;;14.13;4.90;;;;;;;23.20;40.07;96201.44;5029608;28;20103;-73
2023/06/12 09:31:09;;;;;;;12.95;5.22;;;;;;;23.32;38.74;96195.41;5029144;28;20111;-73
2023/06/12 09:33:39;;;;;;;14.15;5.07;;;;;;;23.28;37.91;96199.41;5029762;28;20410;-73
2023/06/12 09:36:08;;;;;;;15.30;4.68;;;;;;;23.48;39.03;96194.94;5029308;28;20053;-73
2023/06/12 09:38:36;;;;;;;17.25;5.25;;;;;;;23.55;38.33;96194.91;5028735;28;20045;-73
2023/06/12 09:41:04;;;;;;;15.65;5.30;;;;;;;23.82;39.04;96194.34;5029054;28;20417;-73
2023/06/12 09:43:31;;;;;;;16.65;5.90;;;;;;;23.91;39.31;96203.03;5029388;28;20045;-73
2023/06/12 09:45:58;;;;;;;13.73;4.95;;;;;;;23.92;36.88;96194.28;5029535;28;20041;-73
2023/06/12 09:48:25;;;;;;;13.63;5.53;;;;;;;23.89;39.44;96194.28;5028947;28;20041;-73
2023/06/12 09:50:52;;;;;;;25.17;7.15;;;;;;;23.67;38.15;96191.66;5029237;28;20038;-73
2023/06/12 09:53:22;;;;;;;12.07;4.82;;;;;;;23.60;37.44;96193.69;5029095;28;20120;-73
2023/06/12 09:55:50;;;;;;;14.18;5.63;;;;;;;23.62;38.07;96194.84;5029185;28;20041;-73
2023/06/12 09:58:18;;;;;;;11.43;5.18;;;;;;;23.74;37.96;96188.03;5028671;28;20052;-73
2023/06/12 10:00:46;;;;;;;15.55;4.85;;;;;;;23.90;37.72;96188.31;5029460;28;20439;-73
2023/06/12 10:03:15;;;;;;;15.90;5.55;;;;;;;24.01;36.80;96188.22;5028495;28;20524;-73
2023/06/12 10:05:48;;;;;;;13.02;4.85;;;;;;;24.05;36.43;96180.66;5029522;28;20046;-73
2023/06/12 10:08:16;;;;;;;14.45;5.45;;;;;;;23.78;36.92;96182.47;5028826;28;20037;-73
2023/06/12 10:10:45;;;;;;;6.72;4.15;;;;;;;23.83;37.39;96176.47;5029563;28;20044;-73
2023/06/12 10:13:13;;;;;;;12.05;4.78;;;;;;;24.01;38.60;96177.09;5028862;28;20065;-73
2023/06/12 10:15:40;;;;;;;12.63;5.53;;;;;;;23.96;38.39;96171.97;5029357;28;20052;-72
2023/06/12 10:18:08;;;;;;;8.18;4.25;;;;;;;24.17;37.54;96177.38;5028694;28;20056;-73
2023/06/12 10:20:35;;;;;;;9.75;4.82;;;;;;;24.20;38.54;96164.63;5029366;28;20152;-73
2023/06/12 10:23:03;;;;;;;17.38;5.50;;;;;;;23.72;36.60;96167.41;5028697;28;20049;-74
2023/06/12 10:25:31;;;;;;;11.93;4.88;;;;;;;23.93;36.19;96164.47;5029559;28;20037;-73
2023/06/12 10:28:00;;;;;;;13.05;5.03;;;;;;;23.98;36.61;96168.81;5028997;28;20057;-73
2023/06/12 10:30:27;;;;;;;13.65;4.85;;;;;;;24.17;36.71;96169.03;5020560;28;20045;-73
2023/06/12 10:32:53;;;;;;;12.27;4.70;;;;;;;24.27;36.92;96164.56;5029280;28;20053;-73
2023/06/12 10:35:30;;;;;;;11.88;4.93;;;;;;;24.45;37.51;96164.44;5028752;28;20042;-73
2023/06/12 10:37:57;;;;;;;13.43;5.45;;;;;;;24.64;37.64;96165.78;5029136;28;20064;-73
2023/06/12 10:40:24;;;;;;;12.10;4.75;;;;;;;24.78;36.72;96165.66;5028851;28;20049;-73
2023/06/12 10:43:03;;;;;;;13.07;4.35;;;;;;;24.93;36.53;96155.13;5029113;28;20044;-73
2023/06/12 10:45:30;;;;;;;13.40;4.70;;;;;;;25.00;36.70;96166.16;5028747;28;20037;-73
2023/06/12 10:48:13;;;;;;;11.93;4.68;;;;;;;24.44;36.10;96157.28;5028932;28;20045;-73
2023/06/12 10:50:42;;;;;;;11.68;4.82;;;;;;;24.21;35.68;96144.72;5032330;28;20155;-73
2023/06/12 10:53:11;;;;;;;13.20;4.85;;;;;;;24.38;36.65;96139.44;5032105;28;20053;-73
2023/06/12 10:55:38;;;;;;;15.75;5.05;;;;;;;24.46;36.86;96141.72;5032578;28;20088;-74
2023/06/12 10:58:08;;;;;;;16.30;5.07;;;;;;;24.50;36.12;96140.91;5031704;28;20052;-73
2023/06/12 11:00:36;;;;;;;16.98;4.97;;;;;;;24.67;36.69;96137.13;5032369;28;20041;-73
2023/06/12 11:03:04;;;;;;;15.52;5.32;;;;;;;24.56;36.05;96140.03;5031672;28;20049;-73
2023/06/12 11:05:32;;;;;;;12.80;4.85;;;;;;;24.29;35.68;96144.69;5032424;28;20539;-73
2023/06/12 11:08:00;;;;;;;13.95;5.15;;;;;;;24.34;35.79;96130.31;5032227;28;20393;-73
2023/06/12 11:10:28;;;;;;;13.90;4.55;;;;;;;24.51;35.89;96129.38;5032125;28;20048;-73
2023/06/12 11:12:55;;;;;;;13.55;4.78;;;;;;;24.50;36.23;96133.34;5031811;28;20051;-73
2023/06/12 11:15:23;;;;;;;12.38;4.57;;;;;;;24.37;35.26;96135.88;5011809;28;20050;-73
2023/06/12 11:17:50;;;;;;;19.23;4.57;;;;;;;23.97;35.03;96131.88;5012139;28;20050;-73
2023/06/12 11:20:18;;;;;;;12.45;4.18;;;;;;;24.24;34.59;96118.09;5023594;28;20045;-73
2023/06/12 11:22:45;;;;;;;13.40;4.85;;;;;;;24.47;34.99;96134.16;5032026;28;20052;-73
2023/06/12 11:25:12;;;;;;;13.57;5.03;;;;;;;24.52;33.69;96128.16;5031447;28;20053;-73
2023/06/12 11:27:38;;;;;;;14.38;4.93;;;;;;;24.45;33.41;96126.25;5031751;28;20052;-73
2023/06/12 11:30:09;;;;;;;15.27;4.85;;;;;;;24.46;32.70;96132.59;5031216;28;20509;-73